»·PEaware :: CGCBN KBFL-KMHV

CGCBN :: KBFL-KMHV

FLIGHT INFORMATION

Flight Status: Arrived
Operator: Unknown
More flights by this operator :: More flights under this callsign
Pilot: John G. (36837)
Aircraft: Diamond DA-40
(DA40)
More flights by this aircraft type
Origin: KBFL Meadows
United States
Destination: KMHV Mojave
United States
More flights between these airports :: More routes between these airports
Route: CHADS
File this flight plan on PilotEdge
Remarks:
Altitude:
(Current/Filed)
7,500ft
Speed:
(Current/Filed)
150kts
Departed: 24-Oct-21 10:14 AM
Arrived: 24-Oct-21 10:43 AM
Distance/Time
Traveled:
50nm/0:28
Distance/Time
To Go:
Arrived

Flight Plot

Page will automatically refresh every two minutes.

Flight plan parsing failed; only flown route is shown


Map Options




Map Legend


Flown Route
Filed Route
Departure Airport
Arrival Airport
Navaid (VOR, NDB)
Fix

Horizontal Profiles

Position Reports

Time Latitude Longitude Heading Altitude Ground
Speed
24-Oct-21 09:54 35.429831 -119.047550 135 484ft 0kts
24-Oct-21 09:55 35.429831 -119.047550 135 484ft 0kts
24-Oct-21 09:56 35.429831 -119.047550 135 484ft 0kts
24-Oct-21 09:57 35.429831 -119.047550 135 484ft 0kts
24-Oct-21 09:58 35.429831 -119.047550 135 484ft 0kts
24-Oct-21 09:59 35.429831 -119.047550 135 484ft 0kts
24-Oct-21 10:00 35.429831 -119.047550 135 484ft 0kts
24-Oct-21 10:01 35.429831 -119.047550 135 484ft 0kts
24-Oct-21 10:02 35.429831 -119.047550 135 484ft 0kts
24-Oct-21 10:03 35.429831 -119.047550 135 484ft 0kts
24-Oct-21 10:04 35.429831 -119.047550 135 484ft 0kts
24-Oct-21 10:05 35.429831 -119.047550 135 484ft 0kts
24-Oct-21 10:06 35.429831 -119.047550 135 484ft 0kts
24-Oct-21 10:07 35.429831 -119.047550 135 484ft 0kts
24-Oct-21 10:08 35.429328 -119.047823 224 483ft 5kts
24-Oct-21 10:09 35.427230 -119.045931 136 477ft 11kts
24-Oct-21 10:10 35.425786 -119.044709 225 471ft 0kts
24-Oct-21 10:11 35.425749 -119.044757 226 471ft 5kts
24-Oct-21 10:12 35.426444 -119.047368 316 480ft 37kts
24-Oct-21 10:13 35.441659 -119.064606 314 1212ft 78kts
24-Oct-21 10:14 35.450467 -119.052205 130 2125ft 86kts
24-Oct-21 10:15 35.431900 -119.034964 157 3059ft 82kts
24-Oct-21 10:16 35.417657 -119.013366 121 3960ft 81kts
24-Oct-21 10:17 35.407537 -118.987983 115 4716ft 84kts
24-Oct-21 10:18 35.397628 -118.961926 115 5439ft 85kts
24-Oct-21 10:19 35.387626 -118.935575 115 6176ft 87kts
24-Oct-21 10:20 35.376291 -118.906078 115 6877ft 103kts
24-Oct-21 10:21 35.363396 -118.872448 116 7494ft 120kts
24-Oct-21 10:22 35.347295 -118.830264 117 7510ft 145kts
24-Oct-21 10:23 35.330400 -118.785710 117 7506ft 140kts
24-Oct-21 10:24 35.314094 -118.742731 118 7509ft 138kts
24-Oct-21 10:25 35.297916 -118.700004 118 7499ft 138kts
24-Oct-21 10:26 35.281780 -118.657542 117 7495ft 137kts
24-Oct-21 10:27 35.265573 -118.615115 116 7497ft 137kts
24-Oct-21 10:28 35.249225 -118.572643 117 7509ft 138kts
24-Oct-21 10:29 35.230548 -118.531248 118 7495ft 138kts
24-Oct-21 10:30 35.212088 -118.490339 118 7501ft 138kts
24-Oct-21 10:31 35.193466 -118.449199 118 7514ft 138kts
24-Oct-21 10:32 35.173969 -118.406153 118 7028ft 157kts
24-Oct-21 10:33 35.155131 -118.364010 119 7282ft 120kts
24-Oct-21 10:34 35.137967 -118.326052 119 7511ft 140kts
24-Oct-21 10:35 35.118695 -118.283252 120 7489ft 141kts
24-Oct-21 10:36 35.100353 -118.242608 121 7338ft 140kts
24-Oct-21 10:37 35.084231 -118.200859 111 5995ft 132kts
24-Oct-21 10:38 35.075008 -118.159374 87 4367ft 117kts
24-Oct-21 10:39 35.076542 -118.126686 86 3832ft 85kts
24-Oct-21 10:40 35.060675 -118.120129 235 3190ft 65kts
24-Oct-21 10:41 35.059131 -118.142745 269 2766ft 71kts
24-Oct-21 10:42 35.058400 -118.148723 230 2751ft 0kts
24-Oct-21 10:43 35.058185 -118.149043 229 2751ft 4kts
24-Oct-21 10:44 35.057624 -118.151612 268 2755ft 6kts
24-Oct-21 10:45 35.057266 -118.152615 266 2758ft 0kts
24-Oct-21 10:46 35.057266 -118.152615 266 2758ft 0kts

Navigation Log

Ident Type
Flight plan parsing failed, navigation log unavailable